sensor_id;sensor_type;location;lat;lon;timestamp;pressure;altitude;pressure_sealevel;temperature;humidity
76766;BME280;65707;52.362;6.588;2023-02-02T00:02:06;101926.03;;;7.04;77.77
76766;BME280;65707;52.362;6.588;2023-02-02T00:04:35;101934.31;;;7.12;78.69
76766;BME280;65707;52.362;6.588;2023-02-02T00:07:02;101926.44;;;7.21;78.08
76766;BME280;65707;52.362;6.588;2023-02-02T00:09:30;101934.69;;;7.18;78.03
76766;BME280;65707;52.362;6.588;2023-02-02T00:12:00;101935.91;;;7.25;78.51
76766;BME280;65707;52.362;6.588;2023-02-02T00:14:27;101940.78;;;7.31;78.50
76766;BME280;65707;52.362;6.588;2023-02-02T00:16:55;101932.41;;;7.36;78.56
76766;BME280;65707;52.362;6.588;2023-02-02T00:19:24;101937.50;;;7.39;78.48
76766;BME280;65707;52.362;6.588;2023-02-02T00:21:52;101928.16;;;7.22;79.09
76766;BME280;65707;52.362;6.588;2023-02-02T00:24:20;101930.44;;;7.16;79.68
76766;BME280;65707;52.362;6.588;2023-02-02T00:26:50;101932.13;;;7.17;79.88
76766;BME280;65707;52.362;6.588;2023-02-02T00:29:21;101926.06;;;7.15;80.30
76766;BME280;65707;52.362;6.588;2023-02-02T00:31:49;101933.34;;;7.13;80.23
76766;BME280;65707;52.362;6.588;2023-02-02T00:34:17;101929.34;;;7.18;80.46
76766;BME280;65707;52.362;6.588;2023-02-02T00:36:45;101939.66;;;7.12;81.11
76766;BME280;65707;52.362;6.588;2023-02-02T00:39:15;101932.63;;;7.11;81.25
76766;BME280;65707;52.362;6.588;2023-02-02T00:41:44;101918.66;;;7.07;81.69
76766;BME280;65707;52.362;6.588;2023-02-02T00:44:11;101936.97;;;7.12;81.46
76766;BME280;65707;52.362;6.588;2023-02-02T00:46:56;101941.13;;;7.16;82.26
76766;BME280;65707;52.362;6.588;2023-02-02T00:49:23;101934.44;;;7.10;82.29
76766;BME280;65707;52.362;6.588;2023-02-02T00:51:50;101942.22;;;7.24;82.29
76766;BME280;65707;52.362;6.588;2023-02-02T00:54:17;101927.03;;;7.14;82.01
76766;BME280;65707;52.362;6.588;2023-02-02T00:56:44;101928.84;;;7.13;82.49
76766;BME280;65707;52.362;6.588;2023-02-02T00:59:11;101934.69;;;7.18;83.30
76766;BME280;65707;52.362;6.588;2023-02-02T01:01:38;101939.66;;;7.23;82.94
76766;BME280;65707;52.362;6.588;2023-02-02T01:04:06;101942.72;;;7.40;82.95
76766;BME280;65707;52.362;6.588;2023-02-02T01:06:34;101931.06;;;7.41;83.07
76766;BME280;65707;52.362;6.588;2023-02-02T01:09:01;101938.34;;;7.50;82.72
76766;BME280;65707;52.362;6.588;2023-02-02T01:11:29;101937.38;;;7.51;82.71
76766;BME280;65707;52.362;6.588;2023-02-02T01:13:56;101945.84;;;7.67;82.27
76766;BME280;65707;52.362;6.588;2023-02-02T01:16:23;101945.13;;;7.54;82.57
76766;BME280;65707;52.362;6.588;2023-02-02T01:18:50;101944.38;;;7.63;82.99
76766;BME280;65707;52.362;6.588;2023-02-02T01:21:18;101949.16;;;7.60;82.74
76766;BME280;65707;52.362;6.588;2023-02-02T01:23:46;101944.50;;;7.62;82.57
76766;BME280;65707;52.362;6.588;2023-02-02T01:26:14;101941.00;;;7.61;82.43
76766;BME280;65707;52.362;6.588;2023-02-02T01:28:42;101946.22;;;7.63;82.30
76766;BME280;65707;52.362;6.588;2023-02-02T01:31:10;101938.22;;;7.52;82.80
76766;BME280;65707;52.362;6.588;2023-02-02T01:33:38;101944.50;;;7.62;82.65
76766;BME280;65707;52.362;6.588;2023-02-02T01:36:08;101946.97;;;7.65;82.41
76766;BME280;65707;52.362;6.588;2023-02-02T01:38:38;101949.13;;;7.71;82.88
76766;BME280;65707;52.362;6.588;2023-02-02T01:41:07;101935.91;;;7.69;82.40
76766;BME280;65707;52.362;6.588;2023-02-02T01:43:52;101946.31;;;7.83;82.11
76766;BME280;65707;52.362;6.588;2023-02-02T01:46:22;101948.16;;;7.83;82.27
76766;BME280;65707;52.362;6.588;2023-02-02T01:48:56;101931.38;;;7.81;82.29
76766;BME280;65707;52.362;6.588;2023-02-02T01:51:34;101945.69;;;7.91;81.97
76766;BME280;65707;52.362;6.588;2023-02-02T01:54:09;101953.34;;;7.96;81.98
76766;BME280;65707;52.362;6.588;2023-02-02T01:56:44;101943.25;;;7.99;81.98
76766;BME280;65707;52.362;6.588;2023-02-02T01:59:16;101955.00;;;8.08;81.73
76766;BME280;65707;52.362;6.588;2023-02-02T02:01:44;101957.44;;;8.00;81.54
76766;BME280;65707;52.362;6.588;2023-02-02T02:04:13;101957.09;;;8.04;81.33
76766;BME280;65707;52.362;6.588;2023-02-02T02:06:40;101967.53;;;8.07;81.50
76766;BME280;65707;52.362;6.588;2023-02-02T02:09:09;101967.53;;;8.07;81.21
76766;BME280;65707;52.362;6.588;2023-02-02T02:11:36;101970.66;;;8.12;80.85
76766;BME280;65707;52.362;6.588;2023-02-02T02:14:08;101967.66;;;8.17;80.78
76766;BME280;65707;52.362;6.588;2023-02-02T02:17:07;101954.84;;;8.20;80.22
76766;BME280;65707;52.362;6.588;2023-02-02T02:20:19;101950.50;;;8.19;80.05
76766;BME280;65707;52.362;6.588;2023-02-02T02:24:01;101949.50;;;8.20;80.47
76766;BME280;65707;52.362;6.588;2023-02-02T02:27:19;101943.94;;;8.12;80.52
76766;BME280;65707;52.362;6.588;2023-02-02T02:30:35;101947.34;;;8.14;80.26
76766;BME280;65707;52.362;6.588;2023-02-02T02:33:17;101949.28;;;8.23;79.92
76766;BME280;65707;52.362;6.588;2023-02-02T02:35:56;101944.88;;;8.22;79.49
76766;BME280;65707;52.362;6.588;2023-02-02T02:38:35;101942.00;;;8.25;79.86
76766;BME280;65707;52.362;6.588;2023-02-02T02:41:10;101935.88;;;8.34;79.14
76766;BME280;65707;52.362;6.588;2023-02-02T02:43:46;101935.69;;;8.26;79.86
76766;BME280;65707;52.362;6.588;2023-02-02T02:46:19;101928.84;;;8.22;78.82
76766;BME280;65707;52.362;6.588;2023-02-02T02:48:48;101942.97;;;8.24;79.91
76766;BME280;65707;52.362;6.588;2023-02-02T02:51:40;101932.13;;;8.37;79.37
76766;BME280;65707;52.362;6.588;2023-02-02T02:54:09;101937.84;;;8.32;79.27
76766;BME280;65707;52.362;6.588;2023-02-02T02:56:42;101935.25;;;8.42;79.19
76766;BME280;65707;52.362;6.588;2023-02-02T02:59:32;101940.88;;;8.39;79.55
76766;BME280;65707;52.362;6.588;2023-02-02T03:02:17;101951.56;;;8.39;78.96
76766;BME280;65707;52.362;6.588;2023-02-02T03:05:03;101946.31;;;8.48;79.42
76766;BME280;65707;52.362;6.588;2023-02-02T03:07:41;101934.41;;;8.41;78.91
76766;BME280;65707;52.362;6.588;2023-02-02T03:10:13;101943.72;;;8.47;78.71
76766;BME280;65707;52.362;6.588;2023-02-02T03:12:45;101958.09;;;8.46;79.28
76766;BME280;65707;52.362;6.588;2023-02-02T03:15:14;101957.00;;;8.48;79.03
76766;BME280;65707;52.362;6.588;2023-02-02T03:17:45;101943.50;;;8.50;78.42
76766;BME280;65707;52.362;6.588;2023-02-02T03:20:15;101955.03;;;8.50;78.34
76766;BME280;65707;52.362;6.588;2023-02-02T03:22:43;101963.13;;;8.60;78.23
76766;BME280;65707;52.362;6.588;2023-02-02T03:25:10;101954.50;;;8.56;78.01
76766;BME280;65707;52.362;6.588;2023-02-02T03:27:36;101957.00;;;8.48;78.88
76766;BME280;65707;52.362;6.588;2023-02-02T03:30:06;101960.88;;;8.44;79.31
76766;BME280;65707;52.362;6.588;2023-02-02T03:32:35;101933.19;;;8.34;79.09
76766;BME280;65707;52.362;6.588;2023-02-02T03:35:04;101955.19;;;8.38;80.00
76766;BME280;65707;52.362;6.588;2023-02-02T03:37:33;101960.19;;;8.31;80.23
76766;BME280;65707;52.362;6.588;2023-02-02T03:40:00;101958.38;;;8.21;81.10
76766;BME280;65707;52.362;6.588;2023-02-02T03:42:27;101954.16;;;8.18;81.41
76766;BME280;65707;52.362;6.588;2023-02-02T03:44:54;101953.53;;;8.15;81.46
76766;BME280;65707;52.362;6.588;2023-02-02T03:47:20;101950.53;;;8.08;82.49
76766;BME280;65707;52.362;6.588;2023-02-02T03:49:47;101945.44;;;8.05;83.47
76766;BME280;65707;52.362;6.588;2023-02-02T03:52:14;101940.56;;;8.10;83.60
76766;BME280;65707;52.362;6.588;2023-02-02T03:54:42;101942.41;;;7.99;83.82
76766;BME280;65707;52.362;6.588;2023-02-02T03:57:09;101942.66;;;7.96;84.28
76766;BME280;65707;52.362;6.588;2023-02-02T03:59:35;101946.06;;;7.98;84.20
76766;BME280;65707;52.362;6.588;2023-02-02T04:02:02;101939.84;;;7.97;83.81
76766;BME280;65707;52.362;6.588;2023-02-02T04:04:32;101939.72;;;7.99;84.37
76766;BME280;65707;52.362;6.588;2023-02-02T04:06:59;101939.09;;;8.06;84.04
76766;BME280;65707;52.362;6.588;2023-02-02T04:09:26;101937.41;;;8.05;83.57
76766;BME280;65707;52.362;6.588;2023-02-02T04:11:54;101937.41;;;8.05;84.10
76766;BME280;65707;52.362;6.588;2023-02-02T04:14:21;101936.81;;;8.02;84.01
76766;BME280;65707;52.362;6.588;2023-02-02T04:16:47;101940.22;;;8.04;84.38
76766;BME280;65707;52.362;6.588;2023-02-02T04:19:14;101942.03;;;8.03;84.06
76766;BME280;65707;52.362;6.588;2023-02-02T04:21:41;101941.06;;;8.04;84.26
76766;BME280;65707;52.362;6.588;2023-02-02T04:24:10;101941.63;;;8.08;84.46
76766;BME280;65707;52.362;6.588;2023-02-02T04:26:38;101939.59;;;8.00;84.68
76766;BME280;65707;52.362;6.588;2023-02-02T04:29:06;101952.22;;;7.98;84.70
76766;BME280;65707;52.362;6.588;2023-02-02T04:31:33;101952.34;;;7.97;85.33
76766;BME280;65707;52.362;6.588;2023-02-02T04:34:00;101965.63;;;7.87;85.73
76766;BME280;65707;52.362;6.588;2023-02-02T04:36:27;101956.03;;;7.84;85.75
76766;BME280;65707;52.362;6.588;2023-02-02T04:38:54;101954.22;;;7.85;85.93
76766;BME280;65707;52.362;6.588;2023-02-02T04:41:22;101945.94;;;7.88;85.99
76766;BME280;65707;52.362;6.588;2023-02-02T04:43:48;101955.06;;;7.74;85.98
76766;BME280;65707;52.362;6.588;2023-02-02T04:46:17;101950.81;;;7.72;86.82
76766;BME280;65707;52.362;6.588;2023-02-02T04:48:46;101940.38;;;7.69;86.65
76766;BME280;65707;52.362;6.588;2023-02-02T04:51:13;101947.88;;;7.86;86.07
76766;BME280;65707;52.362;6.588;2023-02-02T04:53:43;101956.28;;;7.81;86.49
76766;BME280;65707;52.362;6.588;2023-02-02T04:56:12;101948.16;;;7.83;86.43
76766;BME280;65707;52.362;6.588;2023-02-02T04:58:41;101952.88;;;7.79;86.98
76766;BME280;65707;52.362;6.588;2023-02-02T05:01:09;101951.16;;;7.89;86.62
76766;BME280;65707;52.362;6.588;2023-02-02T05:03:38;101953.34;;;7.84;86.36
76766;BME280;65707;52.362;6.588;2023-02-02T05:06:06;101950.69;;;7.84;86.79
76766;BME280;65707;52.362;6.588;2023-02-02T05:08:33;101945.00;;;7.78;86.66
76766;BME280;65707;52.362;6.588;2023-02-02T05:11:05;101936.84;;;7.79;86.82
76766;BME280;65707;52.362;6.588;2023-02-02T05:13:33;101945.94;;;7.88;86.68
76766;BME280;65707;52.362;6.588;2023-02-02T05:15:59;101941.78;;;7.95;86.31
76766;BME280;65707;52.362;6.588;2023-02-02T05:18:26;101950.19;;;7.90;86.48
76766;BME280;65707;52.362;6.588;2023-02-02T05:20:58;101958.56;;;7.97;86.65
76766;BME280;65707;52.362;6.588;2023-02-02T05:23:25;101961.84;;;8.01;86.20
76766;BME280;65707;52.362;6.588;2023-02-02T05:25:53;101957.56;;;7.98;86.70
76766;BME280;65707;52.362;6.588;2023-02-02T05:28:20;101951.50;;;8.07;86.58
76766;BME280;65707;52.362;6.588;2023-02-02T05:30:48;101959.03;;;8.02;87.04
76766;BME280;65707;52.362;6.588;2023-02-02T05:33:15;101947.25;;;8.05;86.52
76766;BME280;65707;52.362;6.588;2023-02-02T05:35:43;101959.41;;;8.09;86.98
76766;BME280;65707;52.362;6.588;2023-02-02T05:38:12;101962.56;;;8.14;87.24
76766;BME280;65707;52.362;6.588;2023-02-02T05:40:41;101955.97;;;8.18;87.00
76766;BME280;65707;52.362;6.588;2023-02-02T05:43:08;101960.06;;;8.22;86.76
76766;BME280;65707;52.362;6.588;2023-02-02T05:45:35;101965.22;;;8.25;87.05
76766;BME280;65707;52.362;6.588;2023-02-02T05:48:01;101959.16;;;8.23;86.98
76766;BME280;65707;52.362;6.588;2023-02-02T05:50:28;101967.38;;;8.20;87.30
76766;BME280;65707;52.362;6.588;2023-02-02T05:52:55;101964.13;;;8.27;86.94
76766;BME280;65707;52.362;6.588;2023-02-02T05:55:24;101960.44;;;8.28;87.33
76766;BME280;65707;52.362;6.588;2023-02-02T05:57:51;101964.47;;;8.34;86.81
76766;BME280;65707;52.362;6.588;2023-02-02T06:00:19;101951.00;;;8.24;87.23
76766;BME280;65707;52.362;6.588;2023-02-02T06:02:46;101967.97;;;8.34;86.93
76766;BME280;65707;52.362;6.588;2023-02-02T06:05:13;101977.22;;;8.30;87.26
76766;BME280;65707;52.362;6.588;2023-02-02T06:07:39;101973.94;;;8.27;87.46
76766;BME280;65707;52.362;6.588;2023-02-02T06:10:07;101965.09;;;8.26;87.31
76766;BME280;65707;52.362;6.588;2023-02-02T06:12:36;101955.34;;;8.25;86.89
76766;BME280;65707;52.362;6.588;2023-02-02T06:15:03;101974.81;;;8.27;87.21
76766;BME280;65707;52.362;6.588;2023-02-02T06:17:30;101967.53;;;8.29;86.93
76766;BME280;65707;52.362;6.588;2023-02-02T06:19:57;101974.81;;;8.27;87.77
76766;BME280;65707;52.362;6.588;2023-02-02T06:22:24;101979.53;;;8.35;87.15
76766;BME280;65707;52.362;6.588;2023-02-02T06:24:51;101979.38;;;8.36;86.87
76766;BME280;65707;52.362;6.588;2023-02-02T06:27:19;101973.78;;;8.39;87.05
76766;BME280;65707;52.362;6.588;2023-02-02T06:29:47;101978.31;;;8.39;87.70
76766;BME280;65707;52.362;6.588;2023-02-02T06:32:14;101984.00;;;8.34;87.65
76766;BME280;65707;52.362;6.588;2023-02-02T06:34:41;101976.84;;;8.35;87.38
76766;BME280;65707;52.362;6.588;2023-02-02T06:37:07;101991.56;;;8.40;87.05
76766;BME280;65707;52.362;6.588;2023-02-02T06:39:34;101985.22;;;8.41;87.27
76766;BME280;65707;52.362;6.588;2023-02-02T06:42:01;102000.78;;;8.36;87.99
76766;BME280;65707;52.362;6.588;2023-02-02T06:44:28;101997.84;;;8.39;87.64
76766;BME280;65707;52.362;6.588;2023-02-02T06:46:56;101993.72;;;8.46;87.63
76766;BME280;65707;52.362;6.588;2023-02-02T06:49:23;101992.13;;;8.44;87.47
76766;BME280;65707;52.362;6.588;2023-02-02T06:51:49;101998.84;;;8.38;87.82
76766;BME280;65707;52.362;6.588;2023-02-02T06:54:16;102000.03;;;8.45;87.56
76766;BME280;65707;52.362;6.588;2023-02-02T06:56:43;102005.38;;;8.45;87.98
76766;BME280;65707;52.362;6.588;2023-02-02T06:59:10;102001.75;;;8.46;87.33
76766;BME280;65707;52.362;6.588;2023-02-02T07:01:37;102012.56;;;8.45;87.53
76766;BME280;65707;52.362;6.588;2023-02-02T07:04:05;102000.16;;;8.44;87.79
76766;BME280;65707;52.362;6.588;2023-02-02T07:06:32;102003.69;;;8.44;88.23
76766;BME280;65707;52.362;6.588;2023-02-02T07:08:59;101995.75;;;8.54;87.95
76766;BME280;65707;52.362;6.588;2023-02-02T07:11:26;102006.09;;;8.47;87.50
76766;BME280;65707;52.362;6.588;2023-02-02T07:13:55;102020.22;;;8.49;87.42
76766;BME280;65707;52.362;6.588;2023-02-02T07:16:22;102016.31;;;8.42;88.03
76766;BME280;65707;52.362;6.588;2023-02-02T07:18:49;102019.47;;;8.47;87.86
76766;BME280;65707;52.362;6.588;2023-02-02T07:21:19;102011.56;;;8.46;87.67
76766;BME280;65707;52.362;6.588;2023-02-02T07:23:47;102016.66;;;8.49;87.78
76766;BME280;65707;52.362;6.588;2023-02-02T07:26:15;102014.47;;;8.54;87.61
76766;BME280;65707;52.362;6.588;2023-02-02T07:28:44;102015.47;;;8.53;87.88
76766;BME280;65707;52.362;6.588;2023-02-02T07:31:13;102017.53;;;8.49;87.68
76766;BME280;65707;52.362;6.588;2023-02-02T07:33:41;102032.97;;;8.46;87.48
76766;BME280;65707;52.362;6.588;2023-02-02T07:36:08;102033.06;;;8.55;87.55
76766;BME280;65707;52.362;6.588;2023-02-02T07:38:37;102035.63;;;8.57;87.55
76766;BME280;65707;52.362;6.588;2023-02-02T07:41:04;102046.44;;;8.55;87.53
76766;BME280;65707;52.362;6.588;2023-02-02T07:43:31;102035.38;;;8.60;87.53
76766;BME280;65707;52.362;6.588;2023-02-02T07:45:59;102039.16;;;8.57;87.48
76766;BME280;65707;52.362;6.588;2023-02-02T07:48:28;102041.34;;;8.52;87.33
76766;BME280;65707;52.362;6.588;2023-02-02T07:50:57;102035.16;;;8.52;87.27
76766;BME280;65707;52.362;6.588;2023-02-02T07:53:26;102044.28;;;8.49;87.62
76766;BME280;65707;52.362;6.588;2023-02-02T07:56:04;102054.13;;;8.49;88.03
76766;BME280;65707;52.362;6.588;2023-02-02T07:58:32;102040.13;;;8.45;87.78
76766;BME280;65707;52.362;6.588;2023-02-02T08:01:00;102063.75;;;8.51;87.97
76766;BME280;65707;52.362;6.588;2023-02-02T08:03:30;102064.56;;;8.52;88.55
76766;BME280;65707;52.362;6.588;2023-02-02T08:05:58;102063.09;;;8.59;87.64
76766;BME280;65707;52.362;6.588;2023-02-02T08:08:25;102064.91;;;8.58;88.06
76766;BME280;65707;52.362;6.588;2023-02-02T08:10:54;102061.88;;;8.52;87.85
76766;BME280;65707;52.362;6.588;2023-02-02T08:13:21;102062.38;;;8.57;88.60
76766;BME280;65707;52.362;6.588;2023-02-02T08:15:48;102064.66;;;8.61;87.93
76766;BME280;65707;52.362;6.588;2023-02-02T08:18:15;102072.22;;;8.56;87.54
76766;BME280;65707;52.362;6.588;2023-02-02T08:20:41;102073.16;;;8.66;87.66
76766;BME280;65707;52.362;6.588;2023-02-02T08:23:08;102078.25;;;8.69;87.81
76766;BME280;65707;52.362;6.588;2023-02-02T08:25:40;102086.81;;;8.63;88.17
76766;BME280;65707;52.362;6.588;2023-02-02T08:28:08;102087.16;;;8.70;87.92
76766;BME280;65707;52.362;6.588;2023-02-02T08:30:35;102096.00;;;8.70;87.48
76766;BME280;65707;52.362;6.588;2023-02-02T08:33:02;102093.72;;;8.66;87.80
76766;BME280;65707;52.362;6.588;2023-02-02T08:35:29;102095.31;;;8.68;87.05
76766;BME280;65707;52.362;6.588;2023-02-02T08:37:56;102098.38;;;8.64;88.05
76766;BME280;65707;52.362;6.588;2023-02-02T08:40:22;102088.00;;;8.59;88.19
76766;BME280;65707;52.362;6.588;2023-02-02T08:42:52;102111.09;;;8.71;87.82
76766;BME280;65707;52.362;6.588;2023-02-02T08:45:21;102089.25;;;8.55;87.63
76766;BME280;65707;52.362;6.588;2023-02-02T08:47:48;102112.06;;;8.70;88.27
76766;BME280;65707;52.362;6.588;2023-02-02T08:50:15;102117.66;;;8.67;87.74
76766;BME280;65707;52.362;6.588;2023-02-02T08:52:43;102094.25;;;8.49;87.63
76766;BME280;65707;52.362;6.588;2023-02-02T08:55:10;102127.41;;;8.68;87.52
76766;BME280;65707;52.362;6.588;2023-02-02T08:57:38;102126.69;;;8.66;88.04
76766;BME280;65707;52.362;6.588;2023-02-02T09:00:06;102136.28;;;8.69;87.76
76766;BME280;65707;52.362;6.588;2023-02-02T09:02:35;102112.94;;;8.60;87.88
76766;BME280;65707;52.362;6.588;2023-02-02T09:05:01;102140.16;;;8.76;87.96
76766;BME280;65707;52.362;6.588;2023-02-02T09:07:28;102141.84;;;8.77;87.93
76766;BME280;65707;52.362;6.588;2023-02-02T09:09:56;102144.28;;;8.80;87.61
76766;BME280;65707;52.362;6.588;2023-02-02T09:12:25;102132.75;;;8.79;87.33
76766;BME280;65707;52.362;6.588;2023-02-02T09:14:51;102147.09;;;8.78;87.77
76766;BME280;65707;52.362;6.588;2023-02-02T09:17:19;102155.34;;;8.86;88.29
76766;BME280;65707;52.362;6.588;2023-02-02T09:19:47;102105.06;;;8.58;87.64
76766;BME280;65707;52.362;6.588;2023-02-02T09:22:14;102152.31;;;8.80;87.50
76766;BME280;65707;52.362;6.588;2023-02-02T09:24:41;102163.97;;;8.90;87.99
76766;BME280;65707;52.362;6.588;2023-02-02T09:27:08;102164.84;;;8.79;88.28
76766;BME280;65707;52.362;6.588;2023-02-02T09:29:34;102153.16;;;8.80;87.43
76766;BME280;65707;52.362;6.588;2023-02-02T09:32:01;102155.00;;;8.69;87.98
76766;BME280;65707;52.362;6.588;2023-02-02T09:34:28;102173.13;;;8.87;87.87
76766;BME280;65707;52.362;6.588;2023-02-02T09:36:57;102178.22;;;8.90;86.92
76766;BME280;65707;52.362;6.588;2023-02-02T09:39:23;102149.31;;;8.73;87.33
76766;BME280;65707;52.362;6.588;2023-02-02T09:42:03;102157.78;;;8.78;86.77
76766;BME280;65707;52.362;6.588;2023-02-02T09:44:58;102178.72;;;8.84;86.92
76766;BME280;65707;52.362;6.588;2023-02-02T09:47:44;102185.38;;;8.90;86.90
76766;BME280;65707;52.362;6.588;2023-02-02T09:50:21;102190.16;;;8.75;87.63
76766;BME280;65707;52.362;6.588;2023-02-02T09:53:07;102191.38;;;8.82;87.65
76766;BME280;65707;52.362;6.588;2023-02-02T09:55:41;102189.06;;;8.78;87.55
76766;BME280;65707;52.362;6.588;2023-02-02T09:58:14;102200.59;;;8.89;87.81
76766;BME280;65707;52.362;6.588;2023-02-02T10:00:52;102188.22;;;8.77;87.76
76766;BME280;65707;52.362;6.588;2023-02-02T10:03:29;102207.53;;;8.92;87.45
76766;BME280;65707;52.362;6.588;2023-02-02T10:06:05;102207.53;;;8.92;87.81
76766;BME280;65707;52.362;6.588;2023-02-02T10:08:49;102212.50;;;8.96;88.05
76766;BME280;65707;52.362;6.588;2023-02-02T10:11:29;102199.53;;;8.81;87.32
76766;BME280;65707;52.362;6.588;2023-02-02T10:14:03;102199.16;;;8.74;87.00
76766;BME280;65707;52.362;6.588;2023-02-02T10:16:39;102220.19;;;8.90;87.35
76766;BME280;65707;52.362;6.588;2023-02-02T10:19:09;102230.28;;;8.86;87.31
76766;BME280;65707;52.362;6.588;2023-02-02T10:21:42;102222.50;;;8.83;87.37
76766;BME280;65707;52.362;6.588;2023-02-02T10:24:18;102235.38;;;8.89;88.12
76766;BME280;65707;52.362;6.588;2023-02-02T10:26:48;102238.78;;;8.91;87.70
76766;BME280;65707;52.362;6.588;2023-02-02T10:29:30;102241.59;;;8.90;87.29
76766;BME280;65707;52.362;6.588;2023-02-02T10:32:09;102242.22;;;8.93;88.13
76766;BME280;65707;52.362;6.588;2023-02-02T10:34:57;102240.25;;;8.95;87.15
76766;BME280;65707;52.362;6.588;2023-02-02T10:37:35;102228.97;;;8.81;87.89
76766;BME280;65707;52.362;6.588;2023-02-02T10:40:20;102236.13;;;8.80;87.32
76766;BME280;65707;52.362;6.588;2023-02-02T10:43:13;102207.44;;;8.60;87.98
76766;BME280;65707;52.362;6.588;2023-02-02T10:46:16;102254.97;;;9.01;87.94
76766;BME280;65707;52.362;6.588;2023-02-02T10:48:48;102236.88;;;8.82;87.65
76766;BME280;65707;52.362;6.588;2023-02-02T10:51:20;102250.13;;;8.95;87.58
76766;BME280;65707;52.362;6.588;2023-02-02T10:53:51;102262.13;;;9.00;88.01
76766;BME280;65707;52.362;6.588;2023-02-02T10:56:29;102256.66;;;9.02;87.12
76766;BME280;65707;52.362;6.588;2023-02-02T10:59:05;102254.97;;;9.01;87.75
76766;BME280;65707;52.362;6.588;2023-02-02T11:01:36;102248.25;;;9.06;87.51
76766;BME280;65707;52.362;6.588;2023-02-02T11:04:03;102248.25;;;9.06;87.74
76766;BME280;65707;52.362;6.588;2023-02-02T11:06:48;102220.19;;;8.79;87.41
76766;BME280;65707;52.362;6.588;2023-02-02T11:09:18;102246.31;;;9.08;87.67
76766;BME280;65707;52.362;6.588;2023-02-02T11:11:51;102240.13;;;9.08;87.83
76766;BME280;65707;52.362;6.588;2023-02-02T11:14:29;102253.00;;;9.14;88.18
76766;BME280;65707;52.362;6.588;2023-02-02T11:17:03;102251.16;;;9.14;87.65
76766;BME280;65707;52.362;6.588;2023-02-02T11:19:34;102246.53;;;9.16;86.90
76766;BME280;65707;52.362;6.588;2023-02-02T11:22:02;102246.53;;;9.16;87.26
76766;BME280;65707;52.362;6.588;2023-02-02T11:24:33;102234.00;;;9.17;87.36
76766;BME280;65707;52.362;6.588;2023-02-02T11:27:12;102246.66;;;9.15;86.64
76766;BME280;65707;52.362;6.588;2023-02-02T11:29:44;102248.00;;;9.20;86.83
76766;BME280;65707;52.362;6.588;2023-02-02T11:32:24;102242.88;;;9.17;88.21
76766;BME280;65707;52.362;6.588;2023-02-02T11:35:13;102227.19;;;9.13;87.16
76766;BME280;65707;52.362;6.588;2023-02-02T11:37:56;102242.28;;;9.25;87.65
76766;BME280;65707;52.362;6.588;2023-02-02T11:40:29;102231.84;;;9.11;87.72
76766;BME280;65707;52.362;6.588;2023-02-02T11:43:03;102236.59;;;9.07;87.65
76766;BME280;65707;52.362;6.588;2023-02-02T11:45:34;102231.47;;;9.15;87.99
76766;BME280;65707;52.362;6.588;2023-02-02T11:48:06;102248.34;;;9.27;88.35
76766;BME280;65707;52.362;6.588;2023-02-02T11:50:43;102254.06;;;9.22;87.86
76766;BME280;65707;52.362;6.588;2023-02-02T11:53:20;102252.72;;;9.28;88.52
76766;BME280;65707;52.362;6.588;2023-02-02T11:55:50;102235.09;;;9.14;87.94
76766;BME280;65707;52.362;6.588;2023-02-02T11:58:22;102255.53;;;9.26;86.97
76766;BME280;65707;52.362;6.588;2023-02-02T12:00:54;102226.81;;;9.17;87.50
76766;BME280;65707;52.362;6.588;2023-02-02T12:03:25;102258.44;;;9.34;87.87
76766;BME280;65707;52.362;6.588;2023-02-02T12:05:55;102257.59;;;9.34;87.70
76766;BME280;65707;52.362;6.588;2023-02-02T12:08:23;102241.41;;;9.24;86.73
76766;BME280;65707;52.362;6.588;2023-02-02T12:10:58;102271.34;;;9.29;87.65
76766;BME280;65707;52.362;6.588;2023-02-02T12:13:45;102255.53;;;9.26;87.97
76766;BME280;65707;52.362;6.588;2023-02-02T12:16:32;102251.63;;;9.30;86.74
76766;BME280;65707;52.362;6.588;2023-02-02T12:22:37;102239.63;;;9.14;87.22
76766;BME280;65707;52.362;6.588;2023-02-02T12:25:41;102252.88;;;9.26;88.09
76766;BME280;65707;52.362;6.588;2023-02-02T12:28:30;102259.69;;;9.19;87.82
76766;BME280;65707;52.362;6.588;2023-02-02T12:31:14;102244.22;;;9.23;87.52
76766;BME280;65707;52.362;6.588;2023-02-02T12:33:53;102198.97;;;9.09;87.08
76766;BME280;65707;52.362;6.588;2023-02-02T12:36:41;102245.63;;;9.38;88.20
76766;BME280;65707;52.362;6.588;2023-02-02T12:39:30;102240.25;;;9.38;88.04
76766;BME280;65707;52.362;6.588;2023-02-02T12:42:16;102248.03;;;9.41;87.87
76766;BME280;65707;52.362;6.588;2023-02-02T12:45:25;102231.00;;;9.42;87.17
76766;BME280;65707;52.362;6.588;2023-02-02T12:48:21;102226.53;;;9.31;87.38
76766;BME280;65707;52.362;6.588;2023-02-02T12:51:08;102234.91;;;9.38;87.36
76766;BME280;65707;52.362;6.588;2023-02-02T12:54:04;102211.81;;;9.26;87.25
76766;BME280;65707;52.362;6.588;2023-02-02T12:56:57;102229.25;;;9.20;87.96
76766;BME280;65707;52.362;6.588;2023-02-02T12:59:56;102236.03;;;9.35;88.05
76766;BME280;65707;52.362;6.588;2023-02-02T13:02:36;102238.44;;;9.38;87.57
76766;BME280;65707;52.362;6.588;2023-02-02T13:05:28;102226.31;;;9.34;87.62
76766;BME280;65707;52.362;6.588;2023-02-02T13:08:09;102226.31;;;9.34;87.47
76766;BME280;65707;52.362;6.588;2023-02-02T13:10:43;102232.88;;;9.30;87.91
76766;BME280;65707;52.362;6.588;2023-02-02T13:13:16;102212.47;;;9.18;87.58
76766;BME280;65707;52.362;6.588;2023-02-02T13:15:48;102235.16;;;9.35;87.45
76766;BME280;65707;52.362;6.588;2023-02-02T13:18:25;102242.03;;;9.28;87.55
76766;BME280;65707;52.362;6.588;2023-02-02T13:21:00;102251.38;;;9.33;87.60
76766;BME280;65707;52.362;6.588;2023-02-02T13:23:31;102243.81;;;9.38;87.07
76766;BME280;65707;52.362;6.588;2023-02-02T13:26:04;102241.63;;;9.32;87.55
76766;BME280;65707;52.362;6.588;2023-02-02T13:28:40;102247.84;;;9.33;87.57
76766;BME280;65707;52.362;6.588;2023-02-02T13:31:14;102252.59;;;9.29;87.35